Home > Products > Valid Products > MTR

000
SAGM31 PGUM 310555
MTRGUM
METAR PGUM 310554Z 10011KT 10SM SCT030 29/23 A2973 RMK AO2 SLP060
60001 T02890233 10306 20278 55006





000
SAGM31 PGUM 310455
MTRGUM
METAR PGUM 310454Z 08016G22KT 10SM FEW015 SCT020 BKN038 28/24 A2973
RMK AO2 SLP058 T02830239





000
SAGM31 PGUM 310355
MTRGUM
METAR PGUM 310354Z 13007KT 10SM SCT019 SCT027 30/24 A2974 RMK AO2
SLP061 T03000244





000
SAGM31 PGUM 310355
MTRGUM
METAR PGUM 310354Z 13007KT 10SM SCT019 SCT027 30/24 A2974 RMK AO2
SLP061 T03000244





000
SAGM31 PGUM 310314
MTRGUM
SPECI PGUM 310313Z 11011KT 10SM FEW021 30/24 A2975 RMK AO2





000
SAGM31 PGUM 310255
MTRGUM
METAR PGUM 310254Z 10009KT 10SM BKN021 29/24 A2975 RMK AO2 SLP066
60000 T02940244 58023





000
SAGM31 PGUM 310232
MTRGUM
SPECI PGUM 310231Z 13007KT 10SM BKN021 30/24 A2976 RMK AO2





000
SAGM31 PGUM 310155
MTRGUM
METAR PGUM 310154Z 11009G16KT 10SM FEW022 30/24 A2978 RMK AO2
RAB09E24 SLP077 P0000 T03000239





000
SAGM31 PGUM 310141
MTRGUM
SPECI PGUM 310140Z 11008G18KT 10SM SCT020 30/24 A2979 RMK AO2
RAB09E24 P0000





000
SAGM31 PGUM 310118
MTRGUM
SPECI PGUM 310117Z 13009KT 10SM -RA SCT018 BKN024 BKN034 28/24 A2980
RMK AO2 RAB09 P0000





000
SAGM31 PGUM 310055
MTRGUM
METAR PGUM 310054Z 12008G16KT 10SM FEW022 29/25 A2981 RMK AO2 SLP086
T02940250





000
SAGM31 PGUM 302354
MTRGUM
METAR PGUM 302354Z 10011G15KT 10SM FEW017 29/24 A2982 RMK AO2 SLP090
60001 T02890244 10294 20267 52016





000
SAGM31 PGUM 302254
MTRGUM
METAR PGUM 302254Z 11011G16KT 10SM FEW019 29/25 A2981 RMK AO2 SLP085
P0001 T02890250





000
SAGM31 PGUM 302228
MTRGUM
SPECI PGUM 302228Z 11010KT 10SM FEW015 SCT023 28/25 A2980 RMK AO2





000
SAGM31 PGUM 302219
MTRGUM
SPECI PGUM 302219Z 11010KT 10SM SCT015 BKN023 28/25 A2980 RMK AO2





000
SAGM31 PGUM 302219
MTRGUM
SPECI PGUM 302219Z 11010KT 10SM SCT015 BKN023 28/25 A2980 RMK AO2





000
SAGM31 PGUM 302154
MTRGUM
METAR PGUM 302154Z AUTO 12006KT 10SM FEW018 SCT032 28/25 A2979 RMK
AO2 SLP079 T02780250 TSNO





000
SAGM31 PGUM 302154
MTRGUM
METAR PGUM 302154Z AUTO 12006KT 10SM FEW018 SCT032 28/25 A2979 RMK
AO2 SLP079 T02780250 TSNO





000
SAGM31 PGUM 302054
MTRGUM
METAR PGUM 302054Z 12005KT 10SM FEW015 27/24 A2977 RMK AO2 SLP074
T02670244 53011





000
SAGM31 PGUM 302043
MTRGUM
SPECI PGUM 302042Z 12007KT 10SM SCT015 27/24 A2977 RMK AO2





000
SAGM31 PGUM 302029
MTRGUM
SPECI PGUM 302028Z 13006KT 10SM BKN015 BKN021 27/25 A2977 RMK AO2





000
SAGM31 PGUM 301954
MTRGUM
METAR PGUM 301954Z 12006KT 10SM FEW013 SCT110 27/24 A2976 RMK AO2
SLP069 T02670244





000
SAGM31 PGUM 301953
MTRGUM
SPECI PGUM 301952Z 13006KT 10SM FEW013 SCT110 27/24 A2976 RMK AO2





000
SAGM31 PGUM 301932
MTRGUM
SPECI PGUM 301931Z 13007KT 10SM BKN013 BKN020 BKN110 27/25 A2975 RMK
AO2





000
SAGM31 PGUM 301854
MTRGUM
METAR PGUM 301854Z 12008KT 10SM SCT017 BKN022 BKN110 27/24 A2974 RMK
AO2 SLP063 T02670244





000
SAGM31 PGUM 301754
MTRGUM
METAR PGUM 301754Z 10007KT 10SM SCT019 27/24 A2973 RMK AO2 SLP058
60003 T02670239 10267 20256 56013





000
SAGM31 PGUM 301654
MTRGUM
METAR PGUM 301654Z 11009KT 10SM FEW015 SCT020 26/24 A2973 RMK AO2
RAB26E49 SLP060 P0000 T02610244





000
SAGM31 PGUM 301654
MTRGUM
METAR PGUM 301654Z 11009KT 10SM FEW015 SCT020 26/24 A2973 RMK AO2
RAB26E49 SLP060 P0000 T02610244





000
SAGM31 PGUM 301646
MTRGUM
SPECI PGUM 301645Z 11009G14KT 10SM -RA SCT015 BKN020 BKN110 26/24
A2974 RMK AO2 RAB26 P0000





000
SAGM31 PGUM 301646
MTRGUM
SPECI PGUM 301645Z 11009G14KT 10SM -RA SCT015 BKN020 BKN110 26/24
A2974 RMK AO2 RAB26 P0000





000
SAGM31 PGUM 301554
MTRGUM
METAR PGUM 301554Z 11008KT 10SM FEW015 26/24 A2977 RMK AO2 RAE02
SLP071 P0000 T02610239





000
SAGM31 PGUM 301455
MTRGUM
METAR PGUM 301454Z 10008KT 10SM -RA FEW013 26/24 A2978 RMK AO2
RAE26B42 SLP078 P0001 60003 T02610244 58016





000
SAGM31 PGUM 301404
MTRGUM
SPECI PGUM 301404Z 11006KT 10SM -RA SCT009 SCT016 BKN044 26/24 A2981
RMK AO2 P0000





000
SAGM31 PGUM 301354
MTRGUM
METAR PGUM 301354Z 11007KT 10SM -RA SCT009 BKN014 BKN031 26/25 A2981
RMK AO2 RAB07 SLP088 P0002 T02610250 403060244





000
SAGM31 PGUM 301347
MTRGUM
SPECI PGUM 301347Z 11005KT 9SM -RA SCT009 BKN016 BKN055 26/25 A2982
RMK AO2 RAB07 P0002





000
SAGM31 PGUM 301254
MTRGUM
METAR PGUM 301254Z 12006KT 10SM FEW110 26/24 A2982 RMK AO2 RAE32
SLP091 P0000 T02610239





000
SAGM31 PGUM 301154
MTRGUM
METAR PGUM 301154Z 10007KT 10SM -RA FEW015 BKN110 26/24 A2983 RMK
AO2 RAE1057B52 SLP094 60009 70060 P0000 T02610244 10267 20256 51016





000
SAGM31 PGUM 301054
MTRGUM
METAR PGUM 301054Z 10009KT 10SM -RA FEW014 SCT022 BKN033 27/24 A2983
RMK AO2 RAE10B47 SLP094 P0000 T02670244





000
SAGM31 PGUM 301054
MTRGUM
METAR PGUM 301054Z 10009KT 10SM -RA FEW014 SCT022 BKN033 27/24 A2983
RMK AO2 RAE10B47 SLP094 P0000 T02670244





000
SAGM31 PGUM 300954
MTRGUM
METAR PGUM 300954Z 09006KT 10SM -RA FEW017 SCT060 SCT080 26/24 A2982
RMK AO2 SLP090 P0002 T02610244





000
SAGM31 PGUM 300855
MTRGUM
METAR PGUM 300854Z 08006KT 10SM -RA FEW021 26/24 A2979 RMK AO2 RAB36
SLP079 P0000 60003 T02610239 51011





000
SAGM31 PGUM 300755
MTRGUM
METAR PGUM 300754Z 07011KT 10SM FEW013 26/24 A2978 RMK AO2 RAB01E23
SLP077 P0000 T02610244





000
SAGM31 PGUM 300655
MTRGUM
METAR PGUM 300654Z 05008KT 10SM FEW046 SCT075 BKN110 26/24 A2978 RMK
AO2 RAE37 SLP075 P0003 T02610244





000
SAGM31 PGUM 300555
MTRGUM
METAR PGUM 300554Z 07009KT 10SM -RA FEW025 BKN046 OVC120 27/24 A2975
RMK AO2 RAB46 SLP067 P0000 60025 T02670244 10306 20261 56003





000
SAGM31 PGUM 300455
MTRGUM
METAR PGUM 300454Z 03004KT 10SM FEW025 BKN034 BKN055 27/24 A2975 RMK
AO2 RAB31E43 SLP067 P0001 T02670244





000
SAGM31 PGUM 300455
MTRGUM
METAR PGUM 300454Z 03004KT 10SM FEW025 BKN034 BKN055 27/24 A2975 RMK
AO2 RAB31E43 SLP067 P0001 T02670244





000
SAGM31 PGUM 300449
MTRGUM
SPECI PGUM 300448Z 03005KT 10SM FEW018 BKN032 BKN055 27/24 A2976 RMK
AO2 RAB31E43 P0001





000
SAGM31 PGUM 300449
MTRGUM
SPECI PGUM 300448Z 03005KT 10SM FEW018 BKN032 BKN055 27/24 A2976 RMK
AO2 RAB31E43 P0001





000
SAGM31 PGUM 300437
MTRGUM
SPECI PGUM 300436Z 05006KT 5SM -RA BR FEW014 BKN027 OVC034 27/24
A2975 RMK AO2 RAB31 P0001





000
SAGM31 PGUM 300403
MTRGUM
SPECI PGUM 300402Z 05010KT 10SM FEW015 BKN040 27/25 A2976 RMK AO2





000
SAGM31 PGUM 300355
MTRGUM
METAR PGUM 300354Z 05010KT 10SM SCT015 BKN025 OVC040 27/25 A2976 RMK
AO2 RAB0255E13 SLP069 P0000 T02720250





000
SAGM31 PGUM 300332
MTRGUM
SPECI PGUM 300331Z 18005KT 10SM FEW010 BKN017 OVC032 26/24 A2977 RMK
AO2 RAB0255E13 P0000





000
SAGM31 PGUM 300325
MTRGUM
SPECI PGUM 300324Z 15004KT 10SM BKN014 BKN027 OVC055 26/24 A2977 RMK
AO2 RAB0255E13 P0000





000
SAGM31 PGUM 300255
MTRGUM
METAR PGUM 300254Z 07006KT 10SM SCT019 BKN031 BKN055 28/26 A2976 RMK
AO2 WSHFT 0208 RAB10E40 SLP070 P0026 60027 T02830256 56020





000
SAGM31 PGUM 300239
MTRGUM
SPECI PGUM 300238Z 06006KT 5SM -RA BR FEW016 BKN022 OVC044 27/26
A2977 RMK AO2 WSHFT 0208 RAB10 P0026





000
SAGM31 PGUM 300232
MTRGUM
SPECI PGUM 300231Z 06006KT 2SM -RA BR SCT017 BKN022 OVC045 26/25
A2978 RMK AO2 WSHFT 0208 VIS 1/2V5 RAB10 P0023





000
SAGM31 PGUM 300224
MTRGUM
SPECI PGUM 300223Z 06010G19KT 3/4SM +RA BR FEW009 SCT015 BKN024
26/25 A2978 RMK AO2 WSHFT 0208 RAB10 P0016





000
SAGM31 PGUM 300219
MTRGUM
SPECI PGUM 300218Z 08015KT 1 1/2SM +RA BR BKN016 27/25 A2978 RMK AO2
VIS 1/2V5 RAB10 P0001





000
SAGM31 PGUM 300155
MTRGUM
METAR PGUM 300154Z 13007KT 10SM FEW021 30/26 A2978 RMK AO2 RAB26E40
SLP075 P0001 T03000256





000
SAGM31 PGUM 300055
MTRGUM
METAR PGUM 300054Z 10010G16KT 10SM SCT017 31/26 A2980 RMK AO2 SLP083
T03060256





000
SAGM31 PGUM 300045
MTRGUM
SPECI PGUM 300044Z 11008KT 10SM BKN017 BKN023 29/26 A2980 RMK AO2





000
SAGM31 PGUM 300005
MTRGUM
SPECI PGUM 300004Z 11011KT 10SM SCT017 SCT029 29/25 A2982 RMK AO2





000
SAGM31 PGUM 292355
MTRGUM
METAR PGUM 292354Z 12008KT 10SM SCT016 SCT023 BKN029 29/25 A2982 RMK
AO2 SLP091 60015 T02890250 10289 20244 51014





000
SAGM31 PGUM 292255
MTRGUM
METAR PGUM 292254Z 13008G15KT 10SM FEW022 28/25 A2982 RMK AO2 SLP088
T02830250





000
SAGM31 PGUM 292155
MTRGUM
METAR PGUM 292154Z 13010G16KT 10SM SCT016 SCT120 27/24 A2980 RMK AO2
SLP084 T02720244





000
SAGM31 PGUM 292125
MTRGUM
SPECI PGUM 292124Z 11011G18KT 10SM SCT013 SCT023 27/24 A2980 RMK AO2





000
SAGM31 PGUM 292116
MTRGUM
SPECI PGUM 292115Z 12010G19KT 10SM FEW011 SCT016 BKN023 27/24 A2979
RMK AO2





000
SAGM31 PGUM 292055
MTRGUM
METAR PGUM 292054Z 11009KT 4SM BR FEW037 SCT120 26/24 A2978 RMK AO2
RAE41 SLP078 P0011 60015 T02610244 50008





000
SAGM31 PGUM 291955
MTRGUM
METAR PGUM 291954Z 11010G21KT 5SM -RA FEW018 SCT033 BKN110 26/23
A2978 RMK AO2 RAB48 SLP078 P0002 T02610233





000
SAGM31 PGUM 291855
MTRGUM
METAR PGUM 291854Z 11009KT 10SM FEW018 SCT028 OVC110 27/24 A2976 RMK
AO2 RAB34E48 SLP070 P0002 T02670244





000
SAGM31 PGUM 291851
MTRGUM
SPECI PGUM 291850Z 11008KT 10SM FEW018 SCT030 OVC110 27/24 A2976 RMK
AO2 RAB34E48 P0002





000
SAGM31 PGUM 291841
MTRGUM
SPECI PGUM 291840Z 11010G16KT 6SM RA BR SCT018 BKN029 OVC110 27/24
A2976 RMK AO2 RAB34 P0002





000
SAGM31 PGUM 291755
MTRGUM
METAR PGUM 291754Z 11008KT 10SM BKN120 27/24 A2975 RMK AO2 RAB04E15
SLP066 P0000 60014 T02670244 10267 20256 58016





000
SAGM31 PGUM 291655
MTRGUM
METAR PGUM 291654Z 10007KT 10SM SCT024 BKN042 BKN100 27/25 A2977 RMK
AO2 RAB27E51 SLP074 P0009 T02670250





000
SAGM31 PGUM 291555
MTRGUM
METAR PGUM 291554Z 10005KT 10SM FEW016 SCT033 27/25 A2978 RMK AO2
SLP076 T02670250





000
SAGM31 PGUM 291455
MTRGUM
METAR PGUM 291454Z 10003KT 10SM FEW015 SCT030 26/24 A2979 RMK AO2
RAB00E26 SLP081 P0005 60005 T02610244 58011





000
SAGM31 PGUM 291411
MTRGUM
SPECI PGUM 291410Z 09012KT 4SM RA BR FEW015 BKN043 OVC070 26/24
A2981 RMK AO2 RAB00 P0004





000
SAGM31 PGUM 291355
MTRGUM
METAR PGUM 291354Z 07007KT 10SM BKN017 BKN025 27/24 A2981 RMK AO2
SLP089 T02670244 402670233





000
SAGM31 PGUM 291352
MTRGUM
SPECI PGUM 291351Z 07005KT 10SM BKN018 27/24 A2981 RMK AO2 402670233





000
SAGM31 PGUM 291255
MTRGUM
METAR PGUM 291254Z 10007KT 10SM FEW022 SCT055 27/24 A2982 RMK AO2
SLP092 T02670244





000
SAGM31 PGUM 291155
MTRGUM
METAR PGUM 291154Z 10006KT 10SM SCT022 26/24 A2984 RMK AO2 SLP098
60003 70192 T02610244 10261 20244 51008





000
SAGM31 PGUM 291108
MTRGUM
SPECI PGUM 291107Z 09005KT 10SM SCT016 SCT022 26/24 A2984 RMK AO2





000
SAGM31 PGUM 291055
MTRGUM
METAR PGUM 291054Z 10005KT 10SM BKN018 BKN025 26/24 A2984 RMK AO2
SLP097 T02610244





000
SAGM31 PGUM 291013
MTRGUM
SPECI PGUM 291012Z 10005KT 10SM BKN016 26/24 A2983 RMK AO2





000
SAGM31 PGUM 290955
MTRGUM
METAR PGUM 290954Z 11005KT 10SM FEW014 26/24 A2983 RMK AO2 SLP094
T02560244





000
SAGM31 PGUM 290855
MTRGUM
METAR PGUM 290854Z 11007KT 10SM FEW015 BKN110 26/24 A2981 RMK AO2
SLP089 60002 T02560239 53007





000
SAGM31 PGUM 290755
MTRGUM
METAR PGUM 290754Z 12008KT 10SM SCT013 25/24 A2980 RMK AO2 RAB27E37
SLP084 P0000 T02500239





000
SAGM31 PGUM 290655
MTRGUM
METAR PGUM 290654Z 13005KT 10SM FEW009 SCT110 25/24 A2978 RMK AO2
RAE39 SLP079 P0002 T02500239





000
SAGM31 PGUM 290648
MTRGUM
SPECI PGUM 290647Z 13006KT 10SM FEW009 SCT085 BKN110 25/24 A2978 RMK
AO2 RAE39 P0002





000
SAGM31 PGUM 290555
MTRGUM
METAR PGUM 290554Z 13007KT 9SM -RA FEW010 BKN080 OVC100 24/24 A2979
RMK AO2 SLP082 P0008 60094 T02440239 10250 20233 56005





000
SAGM31 PGUM 290552
MTRGUM
SPECI PGUM 290551Z 14007KT 9SM -RA SCT010 BKN042 OVC100 24/24 A2979
RMK AO2 P0008 60094





000
SAGM31 PGUM 290540
MTRGUM
SPECI PGUM 290539Z 14009KT 6SM -RA BR SCT008 BKN015 OVC032 25/24
A2979 RMK AO2 P0007





000
SAGM31 PGUM 290514
MTRGUM
SPECI PGUM 290513Z 10009KT 6SM RA BR BKN008 BKN017 OVC023 25/24
A2980 RMK AO2 P0004





000
SAGM31 PGUM 290501
MTRGUM
SPECI PGUM 290500Z 11007KT 3SM RA BR SCT008 BKN027 OVC065 25/24
A2980 RMK AO2 P0002





000
SAGM31 PGUM 290455
MTRGUM
METAR PGUM 290454Z 11008KT 2 1/2SM RA BR SCT011 BKN017 OVC022 25/24
A2980 RMK AO2 SLP084 P0002 T02500239





000
SAGM31 PGUM 290417
MTRGUM
SPECI PGUM 290416Z 13006KT 10SM -RA SCT011 BKN017 OVC022 25/24 A2981
RMK AO2 P0000





000
SAGM31 PGUM 290417
MTRGUM
SPECI PGUM 290416Z 13006KT 10SM -RA SCT011 BKN017 OVC022 25/24 A2981
RMK AO2 P0000





000
SAGM31 PGUM 290406
MTRGUM
SPECI PGUM 290405Z 14005KT 10SM -RA BKN011 OVC019 25/24 A2981 RMK
AO2 P0000





000
SAGM31 PGUM 290406
MTRGUM
SPECI PGUM 290405Z 14005KT 10SM -RA BKN011 OVC019 25/24 A2981 RMK
AO2 P0000





000
SAGM31 PGUM 290355
MTRGUM
METAR PGUM 290354Z 13005KT 10SM -RA SCT011 BKN019 OVC050 25/24 A2981
RMK AO2 SLP087 P0007 T02500239





000
SAGM31 PGUM 290346
MTRGUM
SPECI PGUM 290345Z 13005KT 10SM -RA FEW008 BKN015 OVC075 25/24 A2981
RMK AO2 P0007





000
SAGM31 PGUM 290321
MTRGUM
SPECI PGUM 290320Z 11007KT 6SM -RA BR SCT006 BKN070 OVC080 24/24
A2981 RMK AO2 P0006





000
SAGM31 PGUM 290255
MTRGUM
METAR PGUM 290254Z 13006KT 3SM +RA BR SCT080 OVC100 24/23 A2981 RMK
AO2 SLP089 P0028 60064 T02390233 58020





000
SAGM31 PGUM 290155
MTRGUM
METAR PGUM 290154Z 10007KT 3SM +RA BR BKN055 OVC070 24/23 A2984 RMK
AO2 SLP098 P0028 T02390233





000
SAGM31 PGUM 290155
MTRGUM
METAR PGUM 290154Z 10007KT 3SM +RA BR BKN055 OVC070 24/23 A2984 RMK
AO2 SLP098 P0028 T02390233





000
SAGM31 PGUM 290123
MTRGUM
SPECI PGUM 290122Z 11008KT 3SM RA BR BKN055 OVC070 24/23 A2985 RMK
AO2 P0013





000
SAGM31 PGUM 290102
MTRGUM
SPECI PGUM 290101Z 13004KT 2SM +RA BR SCT060 OVC070 24/23 A2986 RMK
AO2 P0002





000
SAGM31 PGUM 290055
MTRGUM
METAR PGUM 290054Z 13005KT 3SM +RA BR FEW060 OVC075 23/23 A2986 RMK
AO2 SLP106 P0008 T02330228





000
SAGM31 PGUM 290034
MTRGUM
SPECI PGUM 290033Z 14010G15KT 5SM RA BR SCT009 BKN040 OVC080 24/23
A2987 RMK AO2 P0002





000
SAGM31 PGUM 290008
MTRGUM
SPECI PGUM 290007Z 13008KT 4SM -RA BR SCT008 BKN020 OVC047 24/23
A2988 RMK AO2 P0001





000
SAGM31 PGUM 290002
MTRGUM
SPECI PGUM 290001Z 11008KT 2 1/2SM -RA BR SCT010 BKN020 OVC080 24/23
A2988 RMK AO2 P0001





000
SAGM31 PGUM 282355
MTRGUM
METAR PGUM 282354Z 11009G16KT 3SM RA BR FEW008 BKN020 OVC080 24/23
A2987 RMK AO2 SLP109 P0011 60089 T02440233 10261 20244 51023





000
SAGM31 PGUM 282309
MTRGUM
SPECI PGUM 282308Z 33003KT 3SM RA BR BKN040 OVC070 25/24 A2986 RMK
AO2 P0007





000
SAGM31 PGUM 282255
MTRGUM
METAR PGUM 282254Z 00000KT 1 1/4SM +RA BR OVC032 26/24 A2986 RMK AO2
SLP103 P0065 T02560244





000
SAGM31 PGUM 282235
MTRGUM
SPECI PGUM 282234Z 00000KT 1/2SM +RA FG FEW005 OVC015 26/24 A2985
RMK AO2 P0040





000
SAGM31 PGUM 282218
MTRGUM
SPECI PGUM 282217Z 00000KT 1 1/2SM +RA BR FEW006 BKN013 OVC090 26/25
A2984 RMK AO2 P0006





000
SAGM31 PGUM 282215
MTRGUM
SPECI PGUM 282214Z 00000KT 2SM +RA BR BKN009 BKN019 OVC090 26/25
A2984 RMK AO2 P0004





000
SAGM31 PGUM 282211
MTRGUM
SPECI PGUM 282210Z 00000KT 3SM RA BR SCT009 BKN019 OVC090 26/25
A2984 RMK AO2 P0002





000
SAGM31 PGUM 282155
MTRGUM
METAR PGUM 282154Z 00000KT 3SM RA BR FEW019 BKN070 OVC090 26/25
A2983 RMK AO2 RAB25 SLP094 P0013 T02560250





000
SAGM31 PGUM 282136
MTRGUM
SPECI PGUM 282135Z 00000KT 3SM +RA BR SCT021 BKN041 OVC050 26/25
A2983 RMK AO2 RAB25 P0006





000
SAGM31 PGUM 282130
MTRGUM
SPECI PGUM 282129Z 00000KT 2SM -RA BR SCT017 BKN026 OVC090 26/25
A2983 RMK AO2 RAB25 P0001





000
SAGM31 PGUM 282055
MTRGUM
METAR PGUM 282054Z 00000KT 10SM SCT016 26/26 A2980 RMK AO2 SLP085
T02610256 53012





000
SAGM31 PGUM 281955
MTRGUM
METAR PGUM 281954Z 00000KT 10SM FEW018 26/25 A2979 RMK AO2 SLP080
OCNL LTGICCC DSNT N T02560250





000
SAGM31 PGUM 281941
MTRGUM
SPECI PGUM 281940Z 00000KT 10SM FEW018 SCT028 26/25 A2977 RMK AO2





000
SAGM31 PGUM 281933
MTRGUM
SPECI PGUM 281932Z 00000KT 10SM SCT016 BKN028 26/25 A2977 RMK AO2





000
SAGM31 PGUM 281855
MTRGUM
METAR PGUM 281854Z 00000KT 10SM BKN070 26/25 A2977 RMK AO2 SLP074
T02560250





000
SAGM31 PGUM 281755
MTRGUM
METAR PGUM 281754Z 00000KT 10SM CLR 26/25 A2977 RMK AO2 SLP072 60004
T02560250 10267 20256 56007





000
SAGM31 PGUM 281730
MTRGUM
SPECI PGUM 281729Z 00000KT 10SM SCT029 SCT037 26/25 A2977 RMK AO2





000
SAGM31 PGUM 281655
MTRGUM
METAR PGUM 281654Z 21003KT 10SM FEW010 BKN021 26/25 A2978 RMK AO2
SLP076 OCNL LTGICCC DSNT W T02610250





000
SAGM31 PGUM 281655
MTRGUM
METAR PGUM 281654Z 21003KT 10SM FEW010 BKN021 26/25 A2978 RMK AO2
SLP076 OCNL LTGICCC DSNT W T02610250





000
SAGM31 PGUM 281639
MTRGUM
SPECI PGUM 281638Z 18003KT 10SM FEW010 SCT016 BKN021 26/25 A2978 RMK
AO2 OCNL LTGICCC DSNT W





000
SAGM31 PGUM 281555
MTRGUM
METAR PGUM 281554Z 15003KT 10SM FEW006 26/26 A2978 RMK AO2 RAB40E52
SLP075 P0000 T02610256





000
SAGM31 PGUM 281555
MTRGUM
METAR PGUM 281554Z 15003KT 10SM FEW006 26/26 A2978 RMK AO2 RAB40E52
SLP075 P0000 T02610256





000
SAGM31 PGUM 281544
MTRGUM
SPECI PGUM 281543Z 14003KT 7SM -RA FEW006 SCT011 BKN046 26/26 A2978
RMK AO2 RAB40 P0000





000
SAGM31 PGUM 281544
MTRGUM
SPECI PGUM 281543Z 14003KT 7SM -RA FEW006 SCT011 BKN046 26/26 A2978
RMK AO2 RAB40 P0000





000
SAGM31 PGUM 281455
MTRGUM
METAR PGUM 281454Z 15003KT 10SM FEW017 SCT036 27/26 A2979 RMK AO2
RAE47 SLP080 P0003 60004 T02670256 58011





000
SAGM31 PGUM 281355
MTRGUM
METAR PGUM 281354Z 07009KT 5SM RA BR FEW024 BKN045 27/25 A2982 RMK
AO2 RAB46 SLP089 P0001 T02670250 403000244





000
SAGM31 PGUM 281255
MTRGUM
METAR PGUM 281254Z 02004KT 10SM CLR 26/25 A2981 RMK AO2 SLP089
T02610250





000
SAGM31 PGUM 281155
MTRGUM
METAR PGUM 281154Z 05005KT 10SM FEW018 26/25 A2982 RMK AO2 SLP091
60008 T02610250 10283 20261 51012





000
SAGM31 PGUM 281149
MTRGUM
METAR PGUM 281054Z COR 00000KT 10SM FEW035 27/26 A2982 RMK AO2
RAB12E27 SLP089 CB DSNT N OCNL LTG P0008 T02670256





000
SAGM31 PGUM 281055
MTRGUM
METAR PGUM 281054Z 00000KT 10SM FEW035 27/26 A2982 RMK AO2 RAB12E27
SLP089 CB DSNT N OCNL LTG P0005 T02670256





000
SAGM31 PGUM 281031
MTRGUM
SPECI PGUM 281030Z 00000KT 10SM FEW015 SCT024 BKN035 27/26 A2982 RMK
AO2 RAB12E27 P0005





000
SAGM31 PGUM 281012
MTRGUM
SPECI PGUM 281011Z 07010KT 6SM BR BKN015 BKN022 OVC045 27/25 A2981
RMK AO2





000
SAGM31 PGUM 280955
MTRGUM
METAR PGUM 280954Z 06009KT 10SM FEW013 BKN045 BKN060 27/26 A2980 RMK
AO2 SLP083 T02720256





000
SAGM31 PGUM 280955
MTRGUM
METAR PGUM 280954Z 06009KT 10SM FEW013 BKN045 BKN060 27/26 A2980 RMK
AO2 SLP083 T02720256





000
SAGM31 PGUM 280855
MTRGUM
METAR PGUM 280854Z 00000KT 10SM FEW017 SCT034 BKN046 28/26 A2979 RMK
AO2 SLP079 T02780256 53012





000
SAGM31 PGUM 280755
MTRGUM
METAR PGUM 280754Z 03005KT 10SM FEW014 28/26 A2978 RMK AO2 SLP075
T02780256





000
SAGM31 PGUM 280655
MTRGUM
METAR PGUM 280654Z 36005KT 10SM CLR 28/26 A2977 RMK AO2 SLP071
T02780256





    US Dept of Commerce
    National Oceanic and Atmospheric Administration
    National Weather Service
    1325 East West Highway
    Silver Spring, MD 20910
    Page Author: NWS Internet Services Team
Disclaimer
Information Quality
Credits
Glossary
Privacy Policy
Freedom of Information Act (FOIA)
About Us
Career Opportunities